createdAt,value
2017-08-11T09:12:58.172Z,2892.00
2017-08-11T09:12:58.745Z,2888.00
2017-08-11T09:12:59.339Z,2888.00
2017-08-11T09:12:59.940Z,2884.00
2017-08-11T09:13:00.544Z,2888.00
2017-08-11T09:13:01.151Z,2888.00
2017-08-11T09:13:01.744Z,2888.00
2017-08-11T09:13:02.340Z,2892.00
2017-08-11T09:13:56.823Z,3536.00
2017-08-11T09:13:57.416Z,3536.00
2017-08-11T09:13:58.017Z,3536.00
2017-08-11T09:13:58.623Z,3536.00
2017-08-11T09:13:59.219Z,3532.00
2017-08-11T09:13:59.824Z,3532.00
2017-08-11T09:14:00.420Z,3528.00
2017-08-11T09:14:01.019Z,3532.00
2017-08-11T09:14:54.477Z,3432.00
2017-08-11T09:14:55.077Z,3428.00
2017-08-11T09:14:55.676Z,3428.00
2017-08-11T09:14:56.276Z,3428.00
2017-08-11T09:14:56.873Z,3424.00
2017-08-11T09:14:57.469Z,3424.00
2017-08-11T09:14:58.075Z,3428.00
2017-08-11T09:14:58.673Z,3424.00
2017-08-11T09:15:52.132Z,3324.00
2017-08-11T09:15:52.729Z,3324.00
2017-08-11T09:15:53.329Z,3324.00
2017-08-11T09:15:53.925Z,3324.00
2017-08-11T09:15:54.525Z,3320.00
2017-08-11T09:15:55.125Z,3320.00
2017-08-11T09:15:55.728Z,3316.00
2017-08-11T09:15:56.327Z,3312.00
2017-08-11T09:16:51.317Z,3248.00
2017-08-11T09:16:51.909Z,3252.00
2017-08-11T09:16:52.511Z,3248.00
2017-08-11T09:16:53.111Z,3248.00
2017-08-11T09:16:53.712Z,3244.00
2017-08-11T09:16:54.312Z,3240.00
2017-08-11T09:16:54.912Z,3240.00
2017-08-11T09:17:48.483Z,3124.00
2017-08-11T09:17:49.052Z,3132.00
2017-08-11T09:17:49.653Z,3108.00
2017-08-11T09:17:50.256Z,3012.00
2017-08-11T09:17:50.853Z,2916.00
2017-08-11T09:17:51.455Z,3072.00
2017-08-11T09:17:52.051Z,3172.00
2017-08-11T09:17:52.656Z,3192.00
2017-08-11T09:18:47.130Z,3192.00
2017-08-11T09:18:47.730Z,3196.00
2017-08-11T09:18:48.331Z,3196.00
2017-08-11T09:18:48.924Z,3196.00
2017-08-11T09:18:49.531Z,3196.00
2017-08-11T09:18:50.124Z,3196.00
2017-08-11T09:18:50.728Z,3196.00
2017-08-11T09:18:51.323Z,3196.00
2017-08-11T09:19:44.787Z,3184.00
2017-08-11T09:19:45.376Z,3184.00
2017-08-11T09:19:45.980Z,3180.00
2017-08-11T09:19:46.580Z,3180.00
2017-08-11T09:19:47.179Z,3180.00
2017-08-11T09:19:47.783Z,3180.00
2017-08-11T09:19:48.386Z,3184.00
2017-08-11T09:19:48.980Z,3180.00
2017-08-11T09:20:42.440Z,3156.00
2017-08-11T09:20:43.029Z,3152.00
2017-08-11T09:20:43.629Z,3156.00
2017-08-11T09:20:44.229Z,3156.00
2017-08-11T09:20:44.836Z,3156.00
2017-08-11T09:20:45.427Z,3152.00
2017-08-11T09:20:46.029Z,3156.00
2017-08-11T09:20:46.634Z,3152.00
2017-08-11T09:21:40.594Z,3112.00
2017-08-11T09:21:41.198Z,3108.00
2017-08-11T09:21:41.796Z,3108.00
2017-08-11T09:21:42.393Z,3108.00
2017-08-11T09:21:42.991Z,3108.00
2017-08-11T09:21:43.590Z,3108.00
2017-08-11T09:21:44.195Z,3108.00
2017-08-11T09:22:38.662Z,2996.00
2017-08-11T09:22:39.255Z,2996.00
2017-08-11T09:22:39.856Z,2992.00
2017-08-11T09:22:40.455Z,2992.00
2017-08-11T09:22:41.059Z,2988.00
2017-08-11T09:22:41.652Z,2988.00
2017-08-11T09:22:42.259Z,2984.00
2017-08-11T09:22:42.852Z,2984.00
2017-08-11T09:23:36.330Z,2820.00
2017-08-11T09:23:36.909Z,2820.00
2017-08-11T09:23:37.511Z,2820.00
2017-08-11T09:23:38.111Z,2820.00
2017-08-11T09:23:38.709Z,2816.00
2017-08-11T09:23:39.311Z,2816.00
2017-08-11T09:23:39.910Z,2808.00
2017-08-11T09:23:40.510Z,2812.00
2017-08-11T09:24:33.968Z,2648.00
2017-08-11T09:24:34.565Z,2648.00
2017-08-11T09:24:35.160Z,2644.00
2017-08-11T09:24:35.761Z,2644.00
2017-08-11T09:24:36.361Z,2644.00
2017-08-11T09:24:36.957Z,2644.00
2017-08-11T09:24:37.560Z,2640.00
2017-08-11T09:24:38.160Z,2640.00
2017-08-11T09:25:31.615Z,2484.00
2017-08-11T09:25:32.214Z,2484.00
2017-08-11T09:25:32.808Z,2480.00
2017-08-11T09:25:33.411Z,2480.00
2017-08-11T09:25:34.015Z,2480.00
2017-08-11T09:25:34.607Z,2476.00
2017-08-11T09:25:35.212Z,2480.00
2017-08-11T09:25:35.811Z,2476.00
2017-08-11T09:26:29.271Z,2352.00
2017-08-11T09:26:29.868Z,2348.00
2017-08-11T09:26:30.461Z,2344.00
2017-08-11T09:26:31.060Z,2344.00
2017-08-11T09:26:31.664Z,2344.00
2017-08-11T09:26:32.264Z,2344.00
2017-08-11T09:26:32.859Z,2344.00
2017-08-11T09:26:33.466Z,2344.00
2017-08-11T09:27:26.919Z,2244.00
2017-08-11T09:27:27.515Z,2244.00
2017-08-11T09:27:28.112Z,2240.00
2017-08-11T09:27:28.712Z,2240.00
2017-08-11T09:27:29.314Z,2240.00
2017-08-11T09:27:29.913Z,2240.00
2017-08-11T09:27:30.518Z,2240.00
2017-08-11T09:27:31.118Z,2236.00
2017-08-11T09:28:25.616Z,2164.00
2017-08-11T09:28:26.192Z,2164.00
2017-08-11T09:28:26.791Z,2164.00
2017-08-11T09:28:27.390Z,2160.00
2017-08-11T09:28:27.991Z,2164.00
2017-08-11T09:28:28.592Z,2160.00
2017-08-11T09:28:29.190Z,2160.00
2017-08-11T09:28:29.795Z,2160.00
2017-08-11T09:29:24.270Z,2108.00
2017-08-11T09:29:24.874Z,2116.00
2017-08-11T09:29:25.463Z,2108.00
2017-08-11T09:29:26.066Z,2108.00
2017-08-11T09:29:26.665Z,2108.00
2017-08-11T09:29:27.269Z,2108.00
2017-08-11T09:29:27.865Z,2108.00
2017-08-11T09:29:28.462Z,2108.00
2017-08-11T09:30:22.944Z,2080.00
2017-08-11T09:30:23.541Z,2080.00
2017-08-11T09:30:24.143Z,2076.00
2017-08-11T09:30:24.743Z,2076.00
2017-08-11T09:30:25.341Z,2076.00
2017-08-11T09:30:25.941Z,2076.00
2017-08-11T09:30:26.541Z,2076.00
2017-08-11T09:30:27.137Z,2076.00
2017-08-11T09:31:21.621Z,2052.00
2017-08-11T09:31:22.214Z,2052.00
2017-08-11T09:31:22.816Z,2052.00
2017-08-11T09:31:23.412Z,2052.00
2017-08-11T09:31:24.022Z,2056.00
2017-08-11T09:31:24.613Z,2052.00
2017-08-11T09:31:25.216Z,2052.00
2017-08-11T09:31:25.819Z,2052.00
2017-08-11T09:50:23.203Z,1896.00
2017-08-11T09:50:23.777Z,1892.00
2017-08-11T09:50:24.374Z,1896.00
2017-08-11T09:50:24.978Z,1892.00
2017-08-11T09:50:25.576Z,1892.00
2017-08-11T09:50:26.177Z,1904.00
2017-08-11T09:50:26.773Z,1912.00
2017-08-11T09:50:27.382Z,1908.00
2017-08-11T09:51:21.861Z,2420.00
2017-08-11T09:51:22.454Z,2424.00
2017-08-11T09:51:23.058Z,2424.00
2017-08-11T09:51:23.654Z,2424.00
2017-08-11T09:51:24.253Z,2428.00
2017-08-11T09:51:24.851Z,2432.00
2017-08-11T09:51:25.458Z,2428.00
2017-08-11T09:51:26.054Z,2432.00
2017-08-11T09:52:20.535Z,2588.00
2017-08-11T09:52:21.134Z,2588.00
2017-08-11T09:52:21.732Z,2588.00
2017-08-11T09:52:22.330Z,2592.00
2017-08-11T09:52:22.929Z,2592.00
2017-08-11T09:52:23.531Z,2596.00
2017-08-11T09:52:24.126Z,2596.00
2017-08-11T09:52:24.734Z,2600.00
2017-08-11T09:53:18.188Z,2684.00
2017-08-11T09:53:18.784Z,2688.00
2017-08-11T09:53:19.390Z,2688.00
2017-08-11T09:53:19.984Z,2692.00
2017-08-11T09:53:20.581Z,2692.00
2017-08-11T09:53:21.191Z,2696.00
2017-08-11T09:53:21.784Z,2700.00
2017-08-11T09:53:22.385Z,2700.00
2017-08-11T09:54:16.889Z,2924.00
2017-08-11T09:54:17.472Z,2924.00
2017-08-11T09:54:18.054Z,2924.00
2017-08-11T09:54:18.663Z,2924.00
2017-08-11T09:54:19.258Z,2924.00
2017-08-11T09:54:19.854Z,2924.00
2017-08-11T09:54:20.452Z,2928.00
2017-08-11T09:54:21.052Z,2932.00
2017-08-11T09:55:14.515Z,3040.00
2017-08-11T09:55:15.110Z,3004.00
2017-08-11T09:55:15.709Z,2956.00
2017-08-11T09:55:16.314Z,2948.00
2017-08-11T09:55:16.911Z,2976.00
2017-08-11T09:55:17.511Z,2992.00
2017-08-11T09:55:18.109Z,2992.00
2017-08-11T09:55:18.710Z,2992.00
2017-08-11T09:56:12.169Z,3092.00
2017-08-11T09:56:12.759Z,3092.00
2017-08-11T09:56:13.363Z,3088.00
2017-08-11T09:56:13.966Z,3092.00
2017-08-11T09:56:14.561Z,3092.00
2017-08-11T09:56:15.165Z,3092.00
2017-08-11T09:56:15.766Z,3092.00
2017-08-11T09:56:16.364Z,3092.00
2017-08-11T09:57:10.844Z,3060.00
2017-08-11T09:57:11.442Z,3060.00
2017-08-11T09:57:12.036Z,3064.00
2017-08-11T09:57:12.635Z,3060.00
2017-08-11T09:57:13.233Z,3060.00
2017-08-11T09:57:13.837Z,3060.00
2017-08-11T09:57:14.432Z,3056.00
2017-08-11T09:57:15.038Z,3060.00
2017-08-11T09:58:09.520Z,2960.00
2017-08-11T09:58:10.118Z,2956.00
2017-08-11T09:58:10.717Z,2956.00
2017-08-11T09:58:11.318Z,2956.00
2017-08-11T09:58:11.916Z,2952.00
2017-08-11T09:58:12.513Z,2956.00
2017-08-11T09:58:13.112Z,2952.00
2017-08-11T09:58:13.719Z,2952.00
2017-08-11T09:59:08.194Z,2776.00
2017-08-11T09:59:08.786Z,2776.00
2017-08-11T09:59:09.394Z,2772.00
2017-08-11T09:59:09.990Z,2768.00
2017-08-11T09:59:10.593Z,2768.00
2017-08-11T09:59:11.189Z,2764.00
2017-08-11T09:59:11.789Z,2768.00
2017-08-11T09:59:12.394Z,2768.00
2017-08-11T10:00:07.175Z,2636.00
2017-08-11T10:00:07.689Z,2640.00
2017-08-11T10:00:08.283Z,2640.00
2017-08-11T10:00:08.891Z,2636.00
2017-08-11T10:00:09.489Z,2636.00
2017-08-11T10:00:10.085Z,2632.00
2017-08-11T10:00:10.690Z,2628.00
2017-08-11T10:00:11.285Z,2628.00
2017-08-11T10:01:05.343Z,2352.00
2017-08-11T10:01:05.935Z,2172.00
2017-08-11T10:01:06.537Z,2144.00
2017-08-11T10:01:07.134Z,2016.00
2017-08-11T10:01:07.737Z,2476.00
2017-08-11T10:01:08.340Z,2552.00
2017-08-11T10:01:08.940Z,2624.00
2017-08-11T10:01:09.533Z,2644.00
2017-08-11T10:02:04.016Z,2700.00
2017-08-11T10:02:04.614Z,2704.00
2017-08-11T10:02:05.207Z,2704.00
2017-08-11T10:02:05.811Z,2704.00
2017-08-11T10:02:06.411Z,2704.00
2017-08-11T10:02:07.014Z,2700.00
2017-08-11T10:02:07.617Z,2704.00
2017-08-11T10:02:08.216Z,2700.00
2017-08-11T10:03:02.692Z,2672.00
2017-08-11T10:03:03.284Z,2672.00
2017-08-11T10:03:03.887Z,2668.00
2017-08-11T10:03:04.485Z,2668.00
2017-08-11T10:03:05.087Z,2668.00
2017-08-11T10:03:05.732Z,2672.00
2017-08-11T10:03:06.293Z,2672.00
2017-08-11T10:03:06.887Z,2672.00
2017-08-11T10:04:00.341Z,2660.00
2017-08-11T10:04:00.938Z,2660.00
2017-08-11T10:04:01.584Z,2660.00
2017-08-11T10:04:02.141Z,2656.00
2017-08-11T10:04:02.778Z,2660.00
2017-08-11T10:04:03.388Z,2660.00
2017-08-11T10:04:03.988Z,2656.00
2017-08-11T10:04:04.544Z,2656.00
2017-08-11T10:04:57.998Z,2644.00
2017-08-11T10:04:58.589Z,2640.00
2017-08-11T10:04:59.191Z,2640.00
2017-08-11T10:04:59.796Z,2644.00
2017-08-11T10:05:00.387Z,2644.00
2017-08-11T10:05:00.994Z,2640.00
2017-08-11T10:05:01.592Z,2644.00
2017-08-11T10:05:02.189Z,2644.00
2017-08-11T10:05:55.673Z,2608.00
2017-08-11T10:05:56.239Z,2612.00
2017-08-11T10:05:56.840Z,2612.00
2017-08-11T10:05:57.439Z,2612.00
2017-08-11T10:05:58.043Z,2608.00
2017-08-11T10:05:58.644Z,2612.00
2017-08-11T10:05:59.247Z,2612.00
2017-08-11T10:05:59.843Z,2612.00
2017-08-11T10:06:53.302Z,2568.00
2017-08-11T10:06:53.891Z,2572.00
2017-08-11T10:06:54.498Z,2564.00
2017-08-11T10:06:55.093Z,2568.00
2017-08-11T10:06:55.699Z,2568.00
2017-08-11T10:06:56.296Z,2568.00
2017-08-11T10:06:56.893Z,2568.00
2017-08-11T10:06:57.493Z,2564.00
2017-08-11T10:07:50.951Z,2516.00
2017-08-11T10:07:51.548Z,2512.00
2017-08-11T10:07:52.147Z,2512.00
2017-08-11T10:07:52.746Z,2512.00
2017-08-11T10:07:53.345Z,2516.00
2017-08-11T10:07:53.948Z,2512.00
2017-08-11T10:07:54.549Z,2508.00
2017-08-11T10:07:55.150Z,2512.00
2017-08-11T10:08:49.625Z,2460.00
2017-08-11T10:08:50.224Z,2456.00
2017-08-11T10:08:50.820Z,2460.00
2017-08-11T10:08:51.420Z,2456.00
2017-08-11T10:08:52.018Z,2460.00
2017-08-11T10:08:52.616Z,2456.00
2017-08-11T10:08:53.225Z,2452.00
2017-08-11T10:08:53.821Z,2456.00
2017-08-11T10:09:48.297Z,2412.00
2017-08-11T10:09:48.900Z,2412.00
2017-08-11T10:09:49.495Z,2412.00
2017-08-11T10:09:50.092Z,2412.00
2017-08-11T10:09:50.697Z,2412.00
2017-08-11T10:09:51.296Z,2412.00
2017-08-11T10:09:51.900Z,2408.00
2017-08-11T10:09:52.496Z,2412.00
2017-08-11T10:10:47.002Z,2376.00
2017-08-11T10:10:47.576Z,2376.00
2017-08-11T10:10:48.169Z,2376.00
2017-08-11T10:10:48.776Z,2372.00
2017-08-11T10:10:49.371Z,2372.00
2017-08-11T10:10:49.969Z,2376.00
2017-08-11T10:10:50.569Z,2372.00
2017-08-11T10:10:51.173Z,2372.00
2017-08-11T10:11:44.632Z,2352.00
2017-08-11T10:11:45.226Z,2352.00
2017-08-11T10:11:45.828Z,2352.00
2017-08-11T10:11:46.421Z,2348.00
2017-08-11T10:11:47.027Z,2348.00
2017-08-11T10:11:47.625Z,2352.00
2017-08-11T10:11:48.231Z,2352.00
2017-08-11T10:11:48.828Z,2352.00
2017-08-11T10:12:42.277Z,2340.00
2017-08-11T10:12:42.878Z,2340.00
2017-08-11T10:12:43.473Z,2340.00
2017-08-11T10:12:44.076Z,2340.00
2017-08-11T10:12:44.678Z,2344.00
2017-08-11T10:12:45.277Z,2340.00
2017-08-11T10:12:45.873Z,2340.00
2017-08-11T10:12:46.482Z,2340.00
2017-08-11T10:13:39.935Z,2332.00
2017-08-11T10:13:40.527Z,2332.00
2017-08-11T10:13:41.127Z,2332.00
2017-08-11T10:13:41.724Z,2332.00
2017-08-11T10:13:42.335Z,2332.00
2017-08-11T10:13:42.927Z,2332.00
2017-08-11T10:13:43.528Z,2332.00
2017-08-11T10:13:44.127Z,2332.00
2017-08-11T10:14:38.603Z,2308.00
2017-08-11T10:14:39.201Z,2308.00
2017-08-11T10:14:39.803Z,2308.00
2017-08-11T10:14:40.407Z,2304.00
2017-08-11T10:14:41.004Z,2304.00
2017-08-11T10:14:41.608Z,2308.00
2017-08-11T10:14:42.203Z,2304.00
2017-08-11T10:14:42.804Z,2304.00
2017-08-11T10:15:37.280Z,2260.00
2017-08-11T10:15:37.883Z,2260.00
2017-08-11T10:15:38.476Z,2256.00
2017-08-11T10:15:39.074Z,2256.00
2017-08-11T10:15:39.678Z,2256.00
2017-08-11T10:15:40.282Z,2256.00
2017-08-11T10:15:40.877Z,2256.00
2017-08-11T10:15:41.476Z,2252.00
2017-08-11T10:16:34.963Z,2196.00
2017-08-11T10:16:35.531Z,2196.00
2017-08-11T10:16:36.134Z,2192.00
2017-08-11T10:16:36.731Z,2192.00
2017-08-11T10:16:37.335Z,2188.00
2017-08-11T10:16:37.933Z,2184.00
2017-08-11T10:16:38.536Z,2184.00
2017-08-11T10:16:39.131Z,2188.00
2017-08-11T10:17:32.587Z,2124.00
2017-08-11T10:17:33.185Z,2124.00
2017-08-11T10:17:33.787Z,2124.00
2017-08-11T10:17:34.382Z,2120.00
2017-08-11T10:17:34.987Z,2124.00
2017-08-11T10:17:35.590Z,2120.00
2017-08-11T10:17:36.186Z,2124.00
2017-08-11T10:17:36.778Z,2124.00
2017-08-11T10:18:30.238Z,2068.00
2017-08-11T10:18:30.835Z,2068.00
2017-08-11T10:18:31.434Z,2068.00
2017-08-11T10:18:32.033Z,2068.00
2017-08-11T10:18:32.638Z,2064.00
2017-08-11T10:18:33.235Z,2068.00
2017-08-11T10:18:33.837Z,2068.00
2017-08-11T10:18:34.437Z,2064.00
2017-08-11T10:19:27.887Z,2036.00
2017-08-11T10:19:28.486Z,2036.00
2017-08-11T10:19:29.085Z,2036.00
2017-08-11T10:19:29.690Z,2032.00
2017-08-11T10:19:30.285Z,2036.00
2017-08-11T10:19:30.880Z,2032.00
2017-08-11T10:19:31.485Z,2032.00
2017-08-11T10:19:32.089Z,2032.00
2017-08-11T10:20:25.545Z,2028.00
2017-08-11T10:20:26.134Z,2028.00
2017-08-11T10:20:26.738Z,2028.00
2017-08-11T10:20:27.338Z,2032.00
2017-08-11T10:20:27.941Z,2024.00
2017-08-11T10:20:28.539Z,2028.00
2017-08-11T10:20:29.138Z,2028.00
2017-08-11T10:20:29.739Z,2028.00
2017-08-11T10:21:24.252Z,2040.00
2017-08-11T10:21:24.813Z,2040.00
2017-08-11T10:21:25.412Z,2044.00
2017-08-11T10:21:26.016Z,2044.00
2017-08-11T10:21:26.612Z,2044.00
2017-08-11T10:21:27.211Z,2044.00
2017-08-11T10:21:27.815Z,2044.00
2017-08-11T10:21:28.412Z,2044.00
2017-08-11T10:22:23.403Z,2072.00
2017-08-11T10:22:24.001Z,2072.00
2017-08-11T10:22:24.596Z,2068.00
2017-08-11T10:22:25.202Z,2072.00
2017-08-11T10:22:25.796Z,2072.00
2017-08-11T10:22:26.396Z,2072.00
2017-08-11T10:23:20.438Z,2116.00
2017-08-11T10:23:21.043Z,2116.00
2017-08-11T10:23:21.635Z,2116.00
2017-08-11T10:23:22.241Z,2116.00
2017-08-11T10:23:22.841Z,2120.00
2017-08-11T10:23:23.442Z,2116.00
2017-08-11T10:23:24.036Z,2120.00
2017-08-11T10:23:24.641Z,2116.00
2017-08-11T10:24:19.120Z,2172.00
2017-08-11T10:24:19.716Z,2172.00
2017-08-11T10:24:20.311Z,2176.00
2017-08-11T10:24:20.909Z,2176.00
2017-08-11T10:24:21.513Z,2172.00
2017-08-11T10:24:22.116Z,2176.00
2017-08-11T10:24:22.712Z,2176.00
2017-08-11T10:24:23.312Z,2176.00
2017-08-11T10:25:17.796Z,2212.00
2017-08-11T10:25:18.384Z,2212.00
2017-08-11T10:25:18.989Z,2212.00
2017-08-11T10:25:19.592Z,2212.00
2017-08-11T10:25:20.186Z,2212.00
2017-08-11T10:25:20.789Z,2216.00
2017-08-11T10:25:21.386Z,2212.00
2017-08-11T10:25:21.984Z,2212.00
2017-08-11T10:26:16.467Z,2228.00
2017-08-11T10:26:17.065Z,2228.00
2017-08-11T10:26:17.664Z,2228.00
2017-08-11T10:26:18.260Z,2228.00
2017-08-11T10:26:18.860Z,2228.00
2017-08-11T10:26:19.463Z,2228.00
2017-08-11T10:26:20.065Z,2228.00
2017-08-11T10:26:20.665Z,2228.00
2017-08-11T10:27:14.142Z,2232.00
2017-08-11T10:27:14.716Z,2228.00
2017-08-11T10:27:15.321Z,2232.00
2017-08-11T10:27:15.918Z,2232.00
2017-08-11T10:27:16.518Z,2232.00
2017-08-11T10:27:17.116Z,2232.00
2017-08-11T10:27:17.717Z,2228.00
2017-08-11T10:27:18.317Z,2228.00
2017-08-11T10:28:11.773Z,2216.00
2017-08-11T10:28:12.367Z,2216.00
2017-08-11T10:28:12.979Z,2220.00
2017-08-11T10:28:13.573Z,2216.00
2017-08-11T10:28:14.169Z,2212.00
2017-08-11T10:28:14.771Z,2216.00
2017-08-11T10:28:15.371Z,2216.00
2017-08-11T10:28:15.971Z,2216.00
2017-08-11T10:29:09.428Z,2192.00
2017-08-11T10:29:10.022Z,2196.00
2017-08-11T10:29:10.617Z,2196.00
2017-08-11T10:29:11.221Z,2192.00
2017-08-11T10:29:11.825Z,2196.00
2017-08-11T10:29:12.421Z,2192.00
2017-08-11T10:29:13.023Z,2192.00
2017-08-11T10:29:13.619Z,2192.00
2017-08-11T10:30:07.075Z,2172.00
2017-08-11T10:30:07.676Z,2176.00
2017-08-11T10:30:08.273Z,2172.00
2017-08-11T10:30:08.873Z,2176.00
2017-08-11T10:30:09.473Z,2176.00
2017-08-11T10:30:10.068Z,2172.00
2017-08-11T10:30:10.668Z,2176.00
2017-08-11T10:30:11.274Z,2176.00
2017-08-11T10:31:04.723Z,2184.00
2017-08-11T10:31:05.323Z,2180.00
2017-08-11T10:31:05.920Z,2180.00
2017-08-11T10:31:06.525Z,2184.00
2017-08-11T10:31:07.122Z,2184.00
2017-08-11T10:31:07.726Z,2184.00
2017-08-11T10:31:08.323Z,2184.00
2017-08-11T10:31:08.926Z,2184.00
2017-08-11T10:32:03.438Z,2220.00
2017-08-11T10:32:03.996Z,2216.00
2017-08-11T10:32:04.602Z,2216.00
2017-08-11T10:32:05.195Z,2216.00
2017-08-11T10:32:05.802Z,2216.00
2017-08-11T10:32:06.395Z,2220.00
2017-08-11T10:32:06.994Z,2220.00
2017-08-11T10:32:07.598Z,2220.00
2017-08-11T10:33:02.076Z,2272.00
2017-08-11T10:33:02.673Z,2276.00
2017-08-11T10:33:03.275Z,2276.00
2017-08-11T10:33:03.871Z,2276.00
2017-08-11T10:33:04.473Z,2280.00
2017-08-11T10:33:05.075Z,2276.00
2017-08-11T10:33:05.675Z,2280.00
2017-08-11T10:33:06.271Z,2276.00
2017-08-11T10:34:00.759Z,2328.00
2017-08-11T10:34:01.355Z,2332.00
2017-08-11T10:34:01.950Z,2332.00
2017-08-11T10:34:02.545Z,2332.00
2017-08-11T10:34:03.151Z,2336.00
2017-08-11T10:34:03.751Z,2336.00
2017-08-11T10:34:04.349Z,2332.00
2017-08-11T10:34:04.950Z,2336.00
2017-08-11T10:34:58.414Z,2312.00
2017-08-11T10:34:58.999Z,2316.00
2017-08-11T10:34:59.609Z,2316.00
2017-08-11T10:35:00.201Z,2316.00
2017-08-11T10:35:00.800Z,2320.00
2017-08-11T10:35:01.405Z,2316.00
2017-08-11T10:35:02.005Z,2320.00
2017-08-11T10:35:02.601Z,2320.00
2017-08-11T10:35:57.084Z,2192.00
2017-08-11T10:35:57.674Z,2192.00
2017-08-11T10:35:58.281Z,2188.00
2017-08-11T10:35:58.877Z,2192.00
2017-08-11T10:35:59.472Z,2192.00
2017-08-11T10:36:00.072Z,2192.00
2017-08-11T10:36:00.674Z,2188.00
2017-08-11T10:36:01.274Z,2192.00
2017-08-11T10:36:55.752Z,2400.00
2017-08-11T10:36:56.355Z,2400.00
2017-08-11T10:36:56.958Z,2400.00
2017-08-11T10:36:57.552Z,2396.00
2017-08-11T10:36:58.153Z,2400.00
2017-08-11T10:36:58.756Z,2400.00
2017-08-11T10:36:59.350Z,2400.00
2017-08-11T10:36:59.954Z,2400.00
2017-08-11T10:37:53.427Z,2416.00
2017-08-11T10:37:54.001Z,2416.00
2017-08-11T10:37:54.610Z,2420.00
2017-08-11T10:37:55.209Z,2420.00
2017-08-11T10:37:55.805Z,2416.00
2017-08-11T10:37:56.403Z,2416.00
2017-08-11T10:37:57.009Z,2420.00
2017-08-11T10:37:57.605Z,2420.00
2017-08-11T10:38:52.083Z,2448.00
2017-08-11T10:38:52.685Z,2448.00
2017-08-11T10:38:53.281Z,2452.00
2017-08-11T10:38:53.879Z,2448.00
2017-08-11T10:38:54.476Z,2452.00
2017-08-11T10:38:55.080Z,2452.00
2017-08-11T10:38:55.683Z,2452.00
2017-08-11T10:38:56.280Z,2452.00
2017-08-11T10:39:49.736Z,2488.00
2017-08-11T10:39:50.336Z,2488.00
2017-08-11T10:39:50.933Z,2488.00
2017-08-11T10:39:51.531Z,2488.00
2017-08-11T10:39:52.130Z,2488.00
2017-08-11T10:39:52.770Z,2488.00
2017-08-11T10:39:53.327Z,2488.00
2017-08-11T10:39:53.933Z,2492.00
2017-08-11T10:40:47.387Z,2860.00
2017-08-11T10:40:47.979Z,2548.00
2017-08-11T10:40:48.583Z,2564.00
2017-08-11T10:40:49.184Z,2576.00
2017-08-11T10:40:49.787Z,2288.00
2017-08-11T10:40:50.383Z,2300.00
2017-08-11T10:40:50.988Z,2332.00
2017-08-11T10:40:51.610Z,2364.00
2017-08-11T10:41:45.040Z,2492.00
2017-08-11T10:41:45.636Z,2492.00
2017-08-11T10:41:46.235Z,2496.00
2017-08-11T10:41:46.835Z,2492.00
2017-08-11T10:41:47.436Z,2492.00
2017-08-11T10:41:48.036Z,2492.00
2017-08-11T10:41:48.636Z,2492.00
2017-08-11T10:41:49.235Z,2492.00
2017-08-11T10:42:42.691Z,2548.00
2017-08-11T10:42:43.289Z,2548.00
2017-08-11T10:42:43.888Z,2544.00
2017-08-11T10:42:44.490Z,2544.00
2017-08-11T10:42:45.088Z,2544.00
2017-08-11T10:42:45.688Z,2548.00
2017-08-11T10:42:46.291Z,2544.00
2017-08-11T10:42:46.886Z,2548.00
2017-08-11T10:43:41.387Z,2520.00
2017-08-11T10:43:41.962Z,2520.00
2017-08-11T10:43:42.558Z,2520.00
2017-08-11T10:43:43.161Z,2524.00
2017-08-11T10:43:43.762Z,2524.00
2017-08-11T10:43:44.361Z,2520.00
2017-08-11T10:43:44.964Z,2520.00
2017-08-11T10:43:45.559Z,2520.00
2017-08-11T10:44:40.038Z,2524.00
2017-08-11T10:44:40.638Z,2528.00
2017-08-11T10:44:41.235Z,2524.00
2017-08-11T10:44:41.841Z,2524.00
2017-08-11T10:44:42.433Z,2528.00
2017-08-11T10:44:43.041Z,2528.00
2017-08-11T10:44:43.637Z,2528.00
2017-08-11T10:44:44.236Z,2524.00
2017-08-11T10:45:37.694Z,2564.00
2017-08-11T10:45:38.294Z,2564.00
2017-08-11T10:45:38.891Z,2560.00
2017-08-11T10:45:39.495Z,2564.00
2017-08-11T10:45:40.090Z,2564.00
2017-08-11T10:45:40.693Z,2564.00
2017-08-11T10:45:41.289Z,2564.00
2017-08-11T10:45:41.889Z,2568.00
2017-08-11T10:46:35.342Z,2620.00
2017-08-11T10:46:35.944Z,2616.00
2017-08-11T10:46:36.555Z,2616.00
2017-08-11T10:46:37.144Z,2620.00
2017-08-11T10:46:37.741Z,2620.00
2017-08-11T10:46:38.337Z,2620.00
2017-08-11T10:46:38.942Z,2624.00
2017-08-11T10:46:39.544Z,2624.00
2017-08-11T12:57:16.397Z,3976.00
2017-08-11T12:57:16.978Z,3980.00
2017-08-11T12:57:17.578Z,3984.00
2017-08-11T12:57:18.173Z,3980.00
2017-08-11T12:57:18.773Z,3980.00
2017-08-11T12:57:19.369Z,3980.00
2017-08-11T12:57:19.972Z,3976.00
2017-08-11T12:57:20.572Z,3980.00
2017-08-11T12:58:15.083Z,4048.00
2017-08-11T12:58:15.666Z,4048.00
2017-08-11T12:58:16.254Z,4048.00
2017-08-11T12:58:16.854Z,4048.00
2017-08-11T12:58:17.450Z,4048.00
2017-08-11T12:58:18.051Z,4048.00
2017-08-11T12:58:18.647Z,4048.00
2017-08-11T12:58:19.257Z,4048.00
2017-08-11T12:59:25.510Z,4140.00
2017-08-11T12:59:26.100Z,4144.00
2017-08-11T12:59:26.704Z,4144.00
2017-08-11T12:59:27.300Z,4140.00
2017-08-11T12:59:27.912Z,4144.00
2017-08-11T12:59:28.499Z,4144.00
2017-08-11T12:59:29.099Z,4144.00
2017-08-11T12:59:29.704Z,4148.00
2017-08-11T13:00:24.182Z,4128.00
2017-08-11T13:00:24.783Z,4132.00
2017-08-11T13:00:25.379Z,4136.00
2017-08-11T13:00:25.978Z,4136.00
2017-08-11T13:00:26.578Z,4136.00
2017-08-11T13:00:27.184Z,4136.00
2017-08-11T13:00:27.779Z,4140.00
2017-08-11T13:00:28.377Z,4140.00
2017-08-11T13:01:22.858Z,3912.00
2017-08-11T13:01:23.452Z,3908.00
2017-08-11T13:01:24.058Z,3908.00
2017-08-11T13:01:24.655Z,3904.00
2017-08-11T13:01:25.251Z,3896.00
2017-08-11T13:01:25.850Z,3892.00
2017-08-11T13:01:26.449Z,3892.00
2017-08-11T13:01:27.054Z,3892.00
2017-08-11T13:02:21.542Z,3728.00
2017-08-11T13:02:22.131Z,3728.00
2017-08-11T13:02:22.728Z,3724.00
2017-08-11T13:02:23.335Z,3724.00
2017-08-11T13:02:23.951Z,3724.00
2017-08-11T13:02:24.530Z,3724.00
2017-08-11T13:02:25.130Z,3720.00
2017-08-11T13:02:25.729Z,3716.00
2017-08-11T13:03:20.237Z,3556.00
2017-08-11T13:03:20.806Z,3552.00
2017-08-11T13:03:21.406Z,3552.00
2017-08-11T13:03:22.003Z,3552.00
2017-08-11T13:03:22.609Z,3548.00
2017-08-11T13:03:23.222Z,3544.00
2017-08-11T13:03:23.805Z,3540.00
2017-08-11T13:03:24.409Z,3540.00
2017-08-11T13:04:18.885Z,3208.00
2017-08-11T13:04:19.487Z,3228.00
2017-08-11T13:04:20.079Z,3336.00
2017-08-11T13:04:20.684Z,3416.00
2017-08-11T13:04:21.282Z,3360.00
2017-08-11T13:04:21.877Z,3376.00
2017-08-11T13:04:22.496Z,3408.00
2017-08-11T13:04:23.082Z,3416.00
2017-08-11T13:05:59.035Z,348.00
2017-08-11T13:05:59.627Z,364.00
2017-08-11T13:06:00.225Z,388.00
2017-08-11T13:06:00.827Z,408.00
2017-08-11T13:06:01.427Z,416.00
2017-08-11T13:06:02.023Z,384.00
2017-08-11T13:06:02.624Z,372.00
2017-08-11T13:06:03.227Z,368.00
2017-08-11T13:06:56.685Z,408.00
2017-08-11T13:06:57.283Z,404.00
2017-08-11T13:06:57.884Z,412.00
2017-08-11T13:06:58.485Z,408.00
2017-08-11T13:06:59.078Z,408.00
2017-08-11T13:06:59.684Z,408.00
2017-08-11T13:07:00.277Z,408.00
2017-08-11T13:07:00.881Z,404.00
2017-08-11T13:07:54.338Z,396.00
2017-08-11T13:07:54.937Z,396.00
2017-08-11T13:07:55.537Z,396.00
2017-08-11T13:07:56.134Z,396.00
2017-08-11T13:07:56.737Z,396.00
2017-08-11T13:07:57.328Z,392.00
2017-08-11T13:07:57.933Z,392.00
2017-08-11T13:07:58.538Z,396.00
2017-08-11T13:08:53.035Z,376.00
2017-08-11T13:08:53.604Z,376.00
2017-08-11T13:08:54.210Z,376.00
2017-08-11T13:08:54.811Z,372.00
2017-08-11T13:08:55.409Z,372.00
2017-08-11T13:08:56.017Z,376.00
2017-08-11T13:08:56.611Z,372.00
2017-08-11T13:08:57.208Z,372.00
2017-08-11T13:09:50.665Z,348.00
2017-08-11T13:09:51.263Z,352.00
2017-08-11T13:09:51.858Z,348.00